CZ-0112 weather

Kralovice Airstrip
Czechia

Public forecast

Using degrees Celsius for public forecast. Weather courtesy of forecast.io.

METAR (pilot weather report)

Closest report is Plzeň-Líně Airport, 21.1 nm (39.0 km) SSW. Retrieved 2019/01/17 08:00 UTC (36 minutes ago):

LKLN 170800Z AUTO 23011KT 9999 BKN063 05/M00 Q1005

TAF (pilot weather forecast)

Forecast is more than 12 hours old.

Closest forecast is Karlovy Vary International Airport, 27.0 nm (50.0 km) WNW. Retrieved 2019/01/16 00:18 UTC (1 day ago):

TAF LKKV 162300Z 1700/1806 25012KT CAVOK TEMPO 1700/1806 26014G26KT BECMG 1704/1706 9999 BKN012 TEMPO 1706/1718 5000 RA BKN006 TEMPO 1718/1806 4000 RASN BKN006 PROB30 TEMPO 1718/1806 1200 SN BKN003